In Rescue
 
Open Full Screen Window  High Contrast Mode
March 20, 2019 9:16 PM EDT
Weather Information
Wind Direction
  ---
Wind Speed
  00 kt (0 mph)
Wind Gust
  00 kt (0 mph)
Altimeter
29.99 in
Visibility
10 SM
Temperature
08° C
46° F
Dewpoint
-01° C
30° F
Humidity
53%
1hr Rain Fall
00.00 in.
24hr Rain Fall
00.00 in.
Sky Condition
Overcast @ 6,500 ft
VFR

METAR KDLZ 210116Z AUTO 00000KT 10SM OVC065 08/M01 A2999 RMK AO2

FAA Disclaimer: The data displayed is for advisory purposes only and is not to be used for flight planning or operations.